Time;durP1;ratioP1;P1;durP2;ratioP2;P2;SDS_P1;SDS_P2;PMS_P1;PMS_P2;Temp;Humidity;BMP_temperature;BMP_pressure;BME280_temperature;BME280_humidity;BME280_pressure;Samples;Min_cycle;Max_cycle;Signal;HPM_P1;HPM_P2
2024/01/06 00:01:29;;;;;;;1.75;1.23;;;6.90;99.90;;;;;;5039854;28;20098;-71
2024/01/06 00:03:55;;;;;;;1.33;0.70;;;6.90;99.90;;;;;;5041197;28;20037;-71
2024/01/06 00:06:21;;;;;;;4.00;1.13;;;6.90;99.90;;;;;;5037751;28;20037;-69
2024/01/06 00:08:53;;;;;;;2.83;1.45;;;7.00;99.90;;;;;;5042452;28;20374;-70
2024/01/06 00:11:20;;;;;;;1.85;1.67;;;7.00;99.90;;;;;;5039011;28;20025;-71
2024/01/06 00:13:46;;;;;;;5.22;1.30;;;7.00;99.90;;;;;;5040225;28;20107;-70
2024/01/06 00:16:11;;;;;;;1.85;1.38;;;7.00;99.90;;;;;;5041738;28;20778;-71
2024/01/06 00:18:37;;;;;;;2.60;1.38;;;7.00;99.90;;;;;;5037438;28;20056;-70
2024/01/06 00:21:03;;;;;;;0.93;0.90;;;6.90;99.90;;;;;;5052054;28;20067;-69
2024/01/06 00:23:28;;;;;;;2.70;1.08;;;7.00;99.90;;;;;;5042795;28;20072;-72
2024/01/06 00:25:54;;;;;;;1.70;1.60;;;7.00;99.90;;;;;;5037083;28;20744;-70
2024/01/06 00:28:20;;;;;;;1.00;0.98;;;7.00;99.90;;;;;;5040225;28;20024;-70
2024/01/06 00:30:46;;;;;;;1.15;0.98;;;7.00;99.90;;;;;;5055379;28;20067;-70
2024/01/06 00:33:12;;;;;;;1.48;1.33;;;7.00;99.90;;;;;;5035907;28;20021;-70
2024/01/06 00:35:38;;;;;;;1.08;0.93;;;7.00;99.90;;;;;;5042131;28;20159;-71
2024/01/06 00:38:04;;;;;;;1.15;1.05;;;7.00;99.90;;;;;;5039315;28;20040;-70
2024/01/06 00:40:29;;;;;;;2.08;1.80;;;7.00;99.90;;;;;;5037918;28;20040;-70
2024/01/06 00:42:55;;;;;;;2.22;1.50;;;7.00;99.90;;;;;;5043112;28;20412;-70
2024/01/06 00:45:22;;;;;;;4.20;1.77;;;7.10;99.90;;;;;;5038858;28;20040;-71
2024/01/06 00:47:47;;;;;;;2.92;1.23;;;7.10;99.90;;;;;;5039939;28;20077;-71
2024/01/06 00:50:13;;;;;;;2.35;1.23;;;7.10;99.90;;;;;;5043631;28;20074;-70
2024/01/06 00:52:39;;;;;;;1.60;1.08;;;7.20;99.90;;;;;;5040101;28;20029;-71
2024/01/06 00:55:04;;;;;;;2.33;1.30;;;7.20;99.90;;;;;;5051576;28;20029;-71
2024/01/06 00:57:30;;;;;;;2.20;1.42;;;7.20;99.90;;;;;;5040744;28;20539;-71
2024/01/06 00:59:55;;;;;;;2.65;1.17;;;7.10;99.90;;;;;;5035725;28;20056;-71
2024/01/06 01:02:21;;;;;;;1.45;1.35;;;7.10;99.90;;;;;;5038540;28;20798;-70
2024/01/06 01:04:47;;;;;;;2.38;1.58;;;7.10;99.90;;;;;;5040787;28;20485;-70
2024/01/06 01:07:13;;;;;;;2.92;1.45;;;7.10;99.90;;;;;;5038924;28;20078;-71
2024/01/06 01:09:38;;;;;;;1.33;1.13;;;7.10;99.90;;;;;;5038861;28;20029;-71
2024/01/06 01:12:04;;;;;;;3.30;1.25;;;7.20;99.90;;;;;;5040299;28;20086;-70
2024/01/06 01:14:30;;;;;;;2.53;2.10;;;7.20;99.90;;;;;;5041864;28;20473;-71
2024/01/06 01:16:56;;;;;;;4.13;1.13;;;7.10;99.90;;;;;;5042482;28;20048;-71
2024/01/06 01:19:21;;;;;;;2.47;1.60;;;7.10;99.90;;;;;;5039247;28;20039;-71
2024/01/06 01:21:47;;;;;;;2.25;1.90;;;7.10;99.90;;;;;;5041725;28;20061;-71
2024/01/06 01:24:12;;;;;;;1.92;1.25;;;7.00;99.90;;;;;;5040666;28;20059;-70
2024/01/06 01:26:38;;;;;;;2.88;1.83;;;7.00;99.90;;;;;;5035632;28;20055;-70
2024/01/06 01:29:04;;;;;;;2.25;1.13;;;6.90;99.90;;;;;;5040065;28;20441;-71
2024/01/06 01:31:30;;;;;;;4.15;1.95;;;6.80;99.90;;;;;;5038819;28;20047;-71
2024/01/06 01:33:55;;;;;;;2.83;2.15;;;6.70;99.90;;;;;;5039978;28;20393;-70
2024/01/06 01:36:21;;;;;;;2.88;1.40;;;6.70;99.90;;;;;;5045942;28;20064;-69
2024/01/06 01:38:47;;;;;;;3.25;1.40;;;6.60;99.90;;;;;;5042977;28;20112;-71
2024/01/06 01:41:12;;;;;;;2.17;1.83;;;6.60;99.90;;;;;;5042177;28;20043;-70
2024/01/06 01:43:38;;;;;;;2.88;2.00;;;6.60;99.90;;;;;;5044427;28;20408;-71
2024/01/06 01:46:04;;;;;;;1.98;1.52;;;6.50;99.90;;;;;;5041271;28;20120;-71
2024/01/06 01:48:33;;;;;;;2.00;1.85;;;6.40;99.90;;;;;;5045076;28;21543;-73
2024/01/06 01:50:59;;;;;;;3.88;1.92;;;6.30;99.90;;;;;;5046564;28;20068;-71
2024/01/06 01:53:26;;;;;;;3.38;2.25;;;6.20;99.90;;;;;;5040179;28;20068;-70
2024/01/06 01:55:52;;;;;;;3.83;1.70;;;6.10;99.90;;;;;;5045410;28;20508;-71
2024/01/06 01:58:18;;;;;;;7.07;2.88;;;6.10;99.90;;;;;;5045838;28;20033;-71
2024/01/06 02:00:44;;;;;;;3.25;1.98;;;6.00;99.90;;;;;;5044095;28;20114;-70
2024/01/06 02:03:12;;;;;;;3.60;2.47;;;6.00;99.90;;;;;;5042850;28;20070;-70
2024/01/06 02:05:38;;;;;;;1.80;1.70;;;5.90;99.90;;;;;;5038555;28;20090;-71
2024/01/06 02:08:05;;;;;;;7.45;2.47;;;5.90;99.90;;;;;;5043751;28;20041;-70
2024/01/06 02:10:30;;;;;;;1.80;1.70;;;5.80;99.90;;;;;;5042986;28;20037;-71
2024/01/06 02:12:56;;;;;;;4.57;2.15;;;5.60;99.90;;;;;;5037597;28;20048;-73
2024/01/06 02:15:22;;;;;;;2.08;1.70;;;5.60;99.90;;;;;;5045202;28;20045;-71
2024/01/06 02:17:48;;;;;;;5.20;2.30;;;5.50;99.90;;;;;;5043845;28;20025;-71
2024/01/06 02:20:16;;;;;;;3.35;2.38;;;5.50;99.90;;;;;;5037619;28;20114;-70
2024/01/06 02:22:41;;;;;;;1.58;1.33;;;5.40;99.90;;;;;;5044605;28;20575;-71
2024/01/06 02:25:12;;;;;;;2.00;1.23;;;5.40;99.90;;;;;;5042967;28;20028;-72
2024/01/06 02:27:39;;;;;;;4.50;2.63;;;5.40;99.90;;;;;;5041185;28;20060;-70
2024/01/06 02:30:06;;;;;;;4.20;1.30;;;5.30;99.90;;;;;;5041242;28;20041;-70
2024/01/06 02:32:31;;;;;;;3.00;2.15;;;5.20;99.90;;;;;;5044608;28;20031;-70
2024/01/06 02:34:57;;;;;;;6.25;2.40;;;5.30;99.90;;;;;;5039393;28;20257;-70
2024/01/06 02:37:23;;;;;;;1.40;1.13;;;5.30;99.90;;;;;;5040526;28;20650;-71
2024/01/06 02:39:49;;;;;;;4.53;1.45;;;5.30;99.90;;;;;;5038858;28;20024;-70
2024/01/06 02:42:14;;;;;;;2.50;1.63;;;5.20;99.90;;;;;;5041877;28;20029;-71
2024/01/06 02:44:40;;;;;;;2.90;2.28;;;5.20;99.90;;;;;;5044633;28;20111;-70
2024/01/06 02:47:06;;;;;;;4.22;1.33;;;5.10;99.90;;;;;;5040081;28;20385;-70
2024/01/06 02:49:31;;;;;;;3.42;2.58;;;5.10;99.90;;;;;;5045560;28;20033;-71
2024/01/06 02:51:57;;;;;;;4.05;1.50;;;5.10;99.90;;;;;;5041708;28;20033;-71
2024/01/06 02:54:22;;;;;;;3.30;1.90;;;5.00;99.90;;;;;;5037787;28;20040;-71
2024/01/06 02:56:48;;;;;;;2.55;1.70;;;4.90;99.90;;;;;;5042223;28;20037;-71
2024/01/06 02:59:14;;;;;;;2.33;1.77;;;4.80;99.90;;;;;;5037688;28;20028;-71
2024/01/06 03:01:39;;;;;;;2.22;2.08;;;4.70;99.90;;;;;;5037172;28;20555;-70
2024/01/06 03:04:05;;;;;;;4.57;2.17;;;4.70;99.90;;;;;;5037451;28;20048;-71
2024/01/06 03:06:31;;;;;;;3.00;2.28;;;4.70;99.90;;;;;;5038740;28;20021;-71
2024/01/06 03:08:56;;;;;;;4.45;2.30;;;4.70;99.90;;;;;;5030829;28;20029;-70
2024/01/06 03:11:22;;;;;;;3.20;2.95;;;4.70;99.90;;;;;;5041197;28;20039;-70
2024/01/06 03:13:48;;;;;;;3.47;2.67;;;4.70;99.90;;;;;;5028239;28;20068;-71
2024/01/06 03:16:14;;;;;;;3.00;2.75;;;4.70;99.90;;;;;;5034336;28;20033;-71
2024/01/06 03:18:39;;;;;;;2.72;2.05;;;4.70;99.90;;;;;;5039359;28;20045;-71
2024/01/06 03:21:05;;;;;;;1.85;1.73;;;4.80;99.90;;;;;;5036183;28;20408;-72
2024/01/06 03:23:30;;;;;;;4.53;3.15;;;4.70;99.90;;;;;;5040652;28;21895;-71
2024/01/06 03:25:56;;;;;;;2.75;2.20;;;4.70;99.90;;;;;;5037876;28;20029;-72
2024/01/06 03:28:22;;;;;;;3.03;2.67;;;4.70;99.90;;;;;;5040391;28;20657;-71
2024/01/06 03:30:48;;;;;;;5.32;2.38;;;4.90;99.90;;;;;;5041589;28;20037;-71
2024/01/06 03:33:13;;;;;;;3.28;2.25;;;5.00;99.90;;;;;;5036583;28;20055;-69
2024/01/06 03:35:39;;;;;;;2.28;1.92;;;5.20;99.90;;;;;;5042573;28;20051;-71
2024/01/06 03:38:05;;;;;;;1.48;1.38;;;5.30;99.90;;;;;;5051689;28;20151;-70
2024/01/06 03:40:30;;;;;;;2.80;1.88;;;5.40;99.90;;;;;;5042399;28;20039;-71
2024/01/06 03:42:56;;;;;;;3.05;2.10;;;5.60;99.90;;;;;;5046477;28;20097;-71
2024/01/06 03:45:22;;;;;;;3.78;2.22;;;5.70;99.90;;;;;;5040835;28;20048;-71
2024/01/06 03:47:47;;;;;;;3.80;2.33;;;5.80;99.90;;;;;;5039969;28;20382;-71
2024/01/06 03:50:13;;;;;;;2.47;2.28;;;5.90;99.90;;;;;;5043152;28;20061;-70
2024/01/06 03:52:39;;;;;;;4.20;2.50;;;5.90;99.90;;;;;;5038788;28;20059;-71
2024/01/06 03:55:05;;;;;;;3.15;2.65;;;6.00;99.90;;;;;;5039107;28;21469;-70
2024/01/06 03:57:31;;;;;;;3.63;2.63;;;6.00;99.90;;;;;;5043617;28;20036;-70
2024/01/06 03:59:57;;;;;;;4.40;2.60;;;6.10;99.90;;;;;;5037067;28;20021;-71
2024/01/06 04:02:23;;;;;;;3.85;2.50;;;6.00;99.90;;;;;;5037468;28;20089;-71
2024/01/06 04:04:49;;;;;;;2.70;2.45;;;6.00;99.90;;;;;;5042215;28;20037;-71
2024/01/06 04:07:15;;;;;;;2.92;2.33;;;6.00;99.90;;;;;;5039269;28;20029;-70
2024/01/06 04:09:43;;;;;;;2.78;2.20;;;5.90;99.90;;;;;;5047121;28;20040;-70
2024/01/06 04:12:09;;;;;;;3.17;2.25;;;5.90;99.90;;;;;;5047205;28;20072;-70
2024/01/06 04:14:34;;;;;;;4.75;2.33;;;5.80;99.90;;;;;;5036268;28;20111;-70
2024/01/06 04:17:00;;;;;;;2.42;2.05;;;5.80;99.90;;;;;;5038537;28;20033;-71
2024/01/06 04:19:26;;;;;;;2.53;1.73;;;5.80;99.90;;;;;;5038391;28;20025;-71
2024/01/06 04:21:51;;;;;;;4.78;3.63;;;5.90;99.90;;;;;;5039652;28;20062;-71
2024/01/06 04:24:17;;;;;;;1.83;1.67;;;5.90;99.90;;;;;;5042579;28;20100;-70
2024/01/06 04:26:44;;;;;;;2.90;2.58;;;5.90;99.90;;;;;;5034878;28;20037;-71
2024/01/06 04:29:11;;;;;;;2.03;1.52;;;6.00;99.90;;;;;;5041854;28;20021;-71
2024/01/06 04:31:37;;;;;;;3.67;2.00;;;6.10;99.90;;;;;;5042113;28;20029;-70
2024/01/06 04:34:03;;;;;;;2.17;1.90;;;6.20;99.90;;;;;;5036036;28;20588;-70
2024/01/06 04:36:28;;;;;;;1.65;1.55;;;6.30;99.90;;;;;;5041933;28;20071;-70
2024/01/06 04:38:54;;;;;;;3.05;1.70;;;6.30;99.90;;;;;;5040151;28;20529;-72
2024/01/06 04:41:21;;;;;;;3.95;2.78;;;6.30;99.90;;;;;;5038636;28;20037;-71
2024/01/06 04:43:47;;;;;;;1.98;1.75;;;6.30;99.90;;;;;;5048362;28;20033;-70
2024/01/06 04:46:12;;;;;;;1.75;1.60;;;6.30;99.90;;;;;;5039301;28;20059;-70
2024/01/06 04:48:40;;;;;;;4.13;2.47;;;6.40;99.90;;;;;;5039951;28;20041;-70
2024/01/06 04:51:09;;;;;;;2.80;2.10;;;6.40;99.90;;;;;;5043274;28;20056;-71
2024/01/06 04:53:36;;;;;;;1.67;1.58;;;6.50;99.90;;;;;;5037707;28;20035;-70
2024/01/06 04:56:01;;;;;;;2.40;1.80;;;6.40;99.90;;;;;;5042247;28;20033;-71
2024/01/06 04:58:27;;;;;;;1.88;1.70;;;6.50;99.90;;;;;;5042399;28;20524;-73
2024/01/06 05:00:53;;;;;;;2.13;1.70;;;6.50;99.90;;;;;;5038746;28;20037;-71
2024/01/06 05:03:18;;;;;;;2.78;2.45;;;6.60;99.90;;;;;;5040936;28;20078;-70
2024/01/06 05:05:44;;;;;;;2.22;2.03;;;6.60;99.90;;;;;;5038815;28;20122;-71
2024/01/06 05:08:09;;;;;;;5.88;2.15;;;6.60;99.90;;;;;;5041710;28;20032;-71
2024/01/06 05:10:35;;;;;;;1.50;1.40;;;6.60;99.90;;;;;;5045976;28;20040;-71
2024/01/06 05:13:01;;;;;;;4.63;2.20;;;6.60;99.90;;;;;;5044094;28;20037;-70
2024/01/06 05:15:26;;;;;;;8.20;3.50;;;6.60;99.90;;;;;;5043083;28;20374;-71
2024/01/06 05:17:52;;;;;;;3.03;1.88;;;6.70;99.90;;;;;;5043412;28;20048;-70
2024/01/06 05:20:18;;;;;;;3.70;2.20;;;6.70;99.90;;;;;;5039204;28;20033;-71
2024/01/06 05:22:43;;;;;;;5.72;2.70;;;6.70;99.90;;;;;;5044850;28;20037;-70
2024/01/06 05:25:09;;;;;;;2.20;2.10;;;6.80;99.90;;;;;;5044785;28;20112;-71
2024/01/06 05:27:35;;;;;;;4.80;2.65;;;6.80;99.90;;;;;;5039217;28;20053;-72
2024/01/06 05:30:01;;;;;;;4.82;2.92;;;6.80;99.90;;;;;;5043114;28;20120;-71
2024/01/06 05:32:26;;;;;;;4.68;3.28;;;6.80;99.90;;;;;;5045746;28;20400;-71
2024/01/06 05:34:52;;;;;;;4.10;2.65;;;6.90;99.90;;;;;;5038904;28;20062;-71
2024/01/06 05:37:18;;;;;;;4.32;1.90;;;6.80;99.90;;;;;;5042981;28;20392;-71
2024/01/06 05:39:43;;;;;;;3.50;2.13;;;6.80;99.90;;;;;;5041692;28;20033;-70
2024/01/06 05:42:12;;;;;;;2.50;2.08;;;6.70;99.90;;;;;;5042421;28;20025;-71
2024/01/06 05:44:37;;;;;;;2.17;1.98;;;6.70;99.90;;;;;;5045798;28;20086;-72
2024/01/06 05:47:03;;;;;;;8.07;2.47;;;6.70;99.90;;;;;;5041440;28;20037;-73
2024/01/06 05:49:29;;;;;;;12.00;2.50;;;6.80;99.90;;;;;;5040698;28;20397;-71
2024/01/06 05:51:55;;;;;;;7.68;2.35;;;6.90;99.90;;;;;;5044877;28;20037;-72
2024/01/06 05:54:20;;;;;;;4.90;2.30;;;6.90;99.90;;;;;;5039852;28;20079;-71
2024/01/06 05:56:46;;;;;;;3.42;2.92;;;7.00;99.90;;;;;;5045799;28;20044;-72
2024/01/06 05:59:12;;;;;;;2.35;2.10;;;6.90;99.90;;;;;;5045195;28;20041;-71
2024/01/06 06:01:37;;;;;;;3.10;2.80;;;6.90;99.90;;;;;;5039710;28;20037;-73
2024/01/06 06:04:03;;;;;;;4.72;2.47;;;6.80;99.90;;;;;;5045997;28;20389;-73
2024/01/06 06:06:29;;;;;;;3.53;2.90;;;6.60;99.90;;;;;;5042850;28;20485;-73
2024/01/06 06:08:56;;;;;;;2.58;1.80;;;6.50;99.90;;;;;;5040653;28;20439;-73
2024/01/06 06:11:21;;;;;;;6.85;1.75;;;6.30;99.90;;;;;;5043511;28;20059;-74
2024/01/06 06:13:47;;;;;;;3.05;2.25;;;6.20;99.90;;;;;;5040234;28;20507;-72
2024/01/06 06:16:14;;;;;;;2.13;1.17;;;6.10;99.90;;;;;;5046137;28;20032;-73
2024/01/06 06:18:40;;;;;;;3.88;2.65;;;6.10;99.90;;;;;;5045148;28;20037;-74
2024/01/06 06:21:07;;;;;;;3.58;2.63;;;6.10;99.90;;;;;;5044550;28;20100;-74
2024/01/06 06:23:33;;;;;;;5.40;2.83;;;6.00;99.90;;;;;;5055768;28;20071;-73
2024/01/06 06:26:03;;;;;;;2.85;2.58;;;6.00;99.90;;;;;;5048935;28;20393;-72
2024/01/06 06:28:28;;;;;;;;;;;6.00;99.90;;;;;;5039977;28;21433;-72
2024/01/06 06:30:54;;;;;;;2.88;1.55;;;5.90;99.90;;;;;;5046563;28;19920;-73
2024/01/06 06:33:19;;;;;;;2.40;2.22;;;5.80;99.90;;;;;;5042238;28;20029;-72
2024/01/06 06:35:45;;;;;;;2.22;2.03;;;5.70;99.90;;;;;;5041741;28;20064;-72
2024/01/06 06:38:11;;;;;;;3.35;2.15;;;5.60;99.90;;;;;;5042641;28;20037;-72
2024/01/06 06:40:37;;;;;;;6.40;1.73;;;5.50;99.90;;;;;;5040827;28;20041;-72
2024/01/06 06:43:03;;;;;;;4.70;2.15;;;5.40;99.90;;;;;;5039930;28;20033;-72
2024/01/06 06:45:29;;;;;;;2.42;2.22;;;5.50;99.90;;;;;;5044409;28;20021;-73
2024/01/06 06:47:54;;;;;;;3.97;2.03;;;5.60;99.90;;;;;;5040851;28;20496;-73
2024/01/06 06:50:21;;;;;;;3.03;2.70;;;5.70;99.90;;;;;;5026419;28;20148;-73
2024/01/06 06:52:47;;;;;;;1.73;1.60;;;5.80;99.90;;;;;;5044736;28;20033;-72
2024/01/06 06:55:12;;;;;;;1.77;1.50;;;5.80;99.90;;;;;;5045487;28;20090;-72
2024/01/06 06:57:39;;;;;;;2.80;2.03;;;5.90;99.90;;;;;;5044239;28;20032;-71
2024/01/06 07:00:07;;;;;;;4.13;2.42;;;5.80;99.90;;;;;;5039765;28;20037;-72
2024/01/06 07:02:33;;;;;;;5.95;2.78;;;5.80;99.90;;;;;;5038410;28;20037;-71
2024/01/06 07:04:59;;;;;;;2.03;1.60;;;5.80;99.90;;;;;;5044033;28;20029;-71
2024/01/06 07:07:24;;;;;;;1.50;1.42;;;5.90;99.90;;;;;;5038836;28;20397;-71
2024/01/06 07:09:50;;;;;;;5.63;2.60;;;5.80;99.90;;;;;;5044142;28;20057;-72
2024/01/06 07:12:15;;;;;;;8.75;3.25;;;5.80;99.90;;;;;;5044078;28;20063;-72
2024/01/06 07:14:41;;;;;;;4.95;2.38;;;5.90;99.90;;;;;;5035283;28;20101;-72
2024/01/06 07:17:08;;;;;;;3.53;2.42;;;5.90;99.90;;;;;;5043759;28;20171;-71
2024/01/06 07:19:35;;;;;;;1.58;1.42;;;5.90;99.90;;;;;;5040677;28;20044;-72
2024/01/06 07:22:01;;;;;;;3.15;1.92;;;5.80;99.90;;;;;;5039355;28;21459;-71
2024/01/06 07:24:26;;;;;;;3.25;2.90;;;5.80;99.90;;;;;;5041172;28;20741;-71
2024/01/06 07:26:52;;;;;;;3.47;1.85;;;5.80;99.90;;;;;;5040294;28;20029;-72
2024/01/06 07:29:18;;;;;;;3.47;2.15;;;5.90;99.90;;;;;;5037167;28;20057;-72
2024/01/06 07:31:44;;;;;;;2.42;1.50;;;5.90;99.90;;;;;;5042697;28;20078;-72
2024/01/06 07:34:10;;;;;;;3.08;1.77;;;5.90;99.90;;;;;;5038975;28;20037;-71
2024/01/06 07:36:38;;;;;;;3.85;2.13;;;5.90;99.90;;;;;;5040758;28;20083;-71
2024/01/06 07:39:04;;;;;;;4.53;3.42;;;5.90;99.90;;;;;;5039931;28;20037;-71
2024/01/06 07:41:31;;;;;;;4.93;3.08;;;5.90;99.90;;;;;;5036750;28;20040;-71
2024/01/06 07:43:57;;;;;;;4.63;2.47;;;5.90;99.90;;;;;;5040402;28;20028;-71
2024/01/06 07:46:23;;;;;;;7.78;2.45;;;5.90;99.90;;;;;;5041846;28;20078;-70
2024/01/06 07:48:49;;;;;;;2.72;2.30;;;5.90;99.90;;;;;;5038440;28;20033;-71
2024/01/06 07:51:15;;;;;;;2.42;2.22;;;5.90;99.90;;;;;;5043575;28;20083;-71
2024/01/06 07:53:42;;;;;;;5.55;2.40;;;5.80;99.90;;;;;;5040677;28;20029;-71
2024/01/06 07:56:08;;;;;;;3.85;3.05;;;5.80;99.90;;;;;;5040245;28;20028;-71
2024/01/06 07:58:34;;;;;;;2.20;1.60;;;5.80;99.90;;;;;;5041466;28;20032;-71
2024/01/06 08:00:59;;;;;;;8.13;2.03;;;5.70;99.90;;;;;;5039488;28;20696;-70
2024/01/06 08:03:25;;;;;;;4.00;2.85;;;5.70;99.90;;;;;;5041184;28;20037;-71
2024/01/06 08:05:50;;;;;;;3.67;2.20;;;5.70;99.90;;;;;;5040063;28;20028;-70
2024/01/06 08:08:16;;;;;;;3.63;1.92;;;5.60;99.90;;;;;;5035112;28;21032;-72
2024/01/06 08:10:43;;;;;;;2.83;1.85;;;5.50;99.90;;;;;;5042783;28;21546;-71
2024/01/06 08:13:08;;;;;;;2.63;1.85;;;5.50;99.90;;;;;;5041454;28;20063;-71
2024/01/06 08:15:34;;;;;;;3.25;2.40;;;5.40;99.90;;;;;;5036560;28;20385;-71
2024/01/06 08:18:00;;;;;;;3.10;1.58;;;5.40;99.90;;;;;;5040935;28;20426;-71
2024/01/06 08:20:25;;;;;;;6.55;2.40;;;5.40;99.90;;;;;;5040619;28;20032;-71
2024/01/06 08:22:51;;;;;;;3.80;2.88;;;5.30;99.90;;;;;;5040564;28;20124;-71
2024/01/06 08:25:17;;;;;;;2.13;1.95;;;5.30;99.90;;;;;;5042300;28;20044;-71
2024/01/06 08:27:43;;;;;;;5.72;3.10;;;5.30;99.90;;;;;;5039876;28;20024;-71
2024/01/06 08:30:09;;;;;;;1.95;1.40;;;5.40;99.90;;;;;;5040751;28;20545;-71
2024/01/06 08:32:35;;;;;;;1.88;1.70;;;5.40;99.90;;;;;;5040216;28;20037;-71
2024/01/06 08:35:00;;;;;;;2.90;2.10;;;5.50;99.90;;;;;;5044452;28;20444;-70
2024/01/06 08:37:26;;;;;;;11.57;3.28;;;5.60;99.90;;;;;;5039240;28;20044;-71
2024/01/06 08:39:52;;;;;;;4.15;2.08;;;5.70;99.90;;;;;;5040061;28;20060;-70
2024/01/06 08:42:18;;;;;;;3.28;2.83;;;5.80;99.90;;;;;;5032709;28;20052;-71
2024/01/06 08:44:44;;;;;;;3.95;1.83;;;5.80;99.90;;;;;;5039719;28;20078;-72
2024/01/06 08:47:10;;;;;;;4.30;2.45;;;5.90;99.90;;;;;;5035797;28;20025;-72
2024/01/06 08:49:36;;;;;;;2.78;2.47;;;5.90;99.90;;;;;;5039715;28;20036;-72
2024/01/06 08:52:01;;;;;;;5.72;2.10;;;5.90;99.90;;;;;;5042072;28;20040;-70
2024/01/06 08:54:27;;;;;;;1.83;1.67;;;5.90;99.90;;;;;;5038120;28;20112;-71
2024/01/06 08:56:52;;;;;;;1.63;1.52;;;6.00;99.90;;;;;;5040148;28;20060;-71
2024/01/06 08:59:20;;;;;;;4.28;1.50;;;6.00;99.90;;;;;;5048816;28;20028;-71
2024/01/06 09:01:45;;;;;;;2.72;2.47;;;6.00;99.90;;;;;;5046596;28;20096;-71
2024/01/06 09:04:12;;;;;;;3.15;2.35;;;6.10;99.90;;;;;;5040073;28;20029;-72
2024/01/06 09:06:38;;;;;;;4.13;2.80;;;6.10;99.90;;;;;;5041142;28;20179;-71
2024/01/06 09:09:05;;;;;;;2.63;2.00;;;6.10;99.90;;;;;;5037523;28;20120;-71
2024/01/06 09:11:31;;;;;;;1.70;1.60;;;6.10;99.90;;;;;;5037731;28;20124;-71
2024/01/06 09:13:56;;;;;;;3.03;2.45;;;6.10;99.90;;;;;;5038851;28;20042;-72
2024/01/06 09:16:22;;;;;;;7.03;2.22;;;6.10;99.90;;;;;;5038059;28;20039;-70
2024/01/06 09:18:49;;;;;;;2.92;2.13;;;6.00;99.90;;;;;;5039983;28;20473;-71
2024/01/06 09:21:15;;;;;;;5.93;3.08;;;6.00;99.90;;;;;;5039794;28;20065;-71
2024/01/06 09:23:40;;;;;;;1.63;1.10;;;5.90;99.90;;;;;;5041534;28;20124;-72
2024/01/06 09:26:06;;;;;;;3.90;1.80;;;6.10;99.90;;;;;;5042498;28;20560;-70
2024/01/06 09:28:32;;;;;;;6.47;2.15;;;6.20;99.90;;;;;;5037323;28;20438;-71
2024/01/06 09:30:58;;;;;;;3.58;2.17;;;6.20;99.90;;;;;;5040196;28;20044;-71
2024/01/06 09:33:23;;;;;;;2.70;1.73;;;6.30;99.90;;;;;;5042362;28;20037;-71
2024/01/06 09:35:49;;;;;;;2.85;2.03;;;6.20;99.90;;;;;;5034367;28;20036;-71
2024/01/06 09:38:17;;;;;;;3.85;2.63;;;6.20;99.90;;;;;;5041027;28;20163;-71
2024/01/06 09:40:44;;;;;;;1.58;1.48;;;6.00;99.90;;;;;;5037700;28;20037;-71
2024/01/06 09:43:11;;;;;;;3.15;1.55;;;5.90;99.90;;;;;;5038509;28;20029;-71
2024/01/06 09:45:39;;;;;;;4.28;1.80;;;5.80;99.90;;;;;;5039976;28;20028;-71
2024/01/06 09:48:11;;;;;;;0.80;0.80;;;5.80;99.90;;;;;;5038591;28;20552;-70
2024/01/06 09:50:40;;;;;;;1.80;1.27;;;5.80;99.90;;;;;;5037846;28;20417;-70
2024/01/06 09:53:08;;;;;;;2.83;1.77;;;5.80;99.90;;;;;;5042697;28;20055;-72
2024/01/06 09:55:35;;;;;;;6.93;2.15;;;5.80;99.90;;;;;;5039869;28;20120;-70
2024/01/06 09:58:01;;;;;;;3.35;1.52;;;5.90;99.90;;;;;;5045332;28;20064;-71
2024/01/06 10:00:27;;;;;;;4.43;1.85;;;6.00;99.90;;;;;;5042778;28;20131;-72
2024/01/06 10:02:52;;;;;;;8.27;1.05;;;6.20;99.90;;;;;;5038708;28;20826;-72
2024/01/06 10:05:18;;;;;;;2.72;1.40;;;6.20;99.90;;;;;;5041953;28;20025;-70
2024/01/06 10:07:45;;;;;;;2.67;1.38;;;6.30;99.90;;;;;;5040554;28;20393;-72
2024/01/06 10:10:11;;;;;;;1.60;1.15;;;6.40;99.90;;;;;;5040826;28;20122;-72
2024/01/06 10:12:40;;;;;;;1.67;1.35;;;6.50;99.90;;;;;;5041093;28;20028;-71
2024/01/06 10:15:07;;;;;;;2.67;1.17;;;6.50;99.90;;;;;;5037940;28;20116;-72
2024/01/06 10:17:35;;;;;;;2.25;0.80;;;6.50;99.90;;;;;;5041008;28;20400;-71
2024/01/06 10:20:03;;;;;;;3.63;1.55;;;6.50;99.90;;;;;;5040600;28;20075;-71
2024/01/06 10:22:28;;;;;;;1.80;1.38;;;6.50;99.90;;;;;;5035529;28;20867;-70
2024/01/06 10:24:55;;;;;;;2.58;1.05;;;6.50;99.90;;;;;;5043291;28;20036;-71
2024/01/06 10:27:21;;;;;;;2.42;0.90;;;6.50;99.90;;;;;;5042058;28;20447;-71
2024/01/06 10:29:47;;;;;;;1.42;0.95;;;6.50;99.90;;;;;;5038591;28;20032;-71
2024/01/06 10:32:13;;;;;;;1.35;1.25;;;6.50;99.90;;;;;;5040955;28;20040;-70
2024/01/06 10:34:38;;;;;;;1.80;0.75;;;6.50;99.90;;;;;;5038638;28;20059;-70
2024/01/06 10:37:05;;;;;;;1.13;1.00;;;6.60;99.90;;;;;;5041353;28;20525;-72
2024/01/06 10:39:31;;;;;;;2.33;1.17;;;6.70;99.90;;;;;;5043411;28;20032;-72
2024/01/06 10:41:57;;;;;;;0.50;0.50;;;6.80;99.90;;;;;;5040360;28;20047;-71
2024/01/06 10:44:24;;;;;;;0.60;0.60;;;7.00;99.90;;;;;;5043718;28;20025;-74
2024/01/06 10:46:52;;;;;;;1.33;1.23;;;7.10;99.90;;;;;;5061763;28;20061;-70
2024/01/06 10:49:21;;;;;;;0.47;0.47;;;7.20;99.90;;;;;;5048189;28;20083;-70
2024/01/06 10:51:48;;;;;;;0.75;0.60;;;7.20;99.90;;;;;;5043665;28;21753;-71
2024/01/06 10:54:15;;;;;;;0.47;0.43;;;7.00;99.90;;;;;;5042382;28;20438;-71
2024/01/06 10:56:43;;;;;;;0.32;0.32;;;7.00;99.90;;;;;;5039738;28;20041;-71
2024/01/06 10:59:11;;;;;;;0.95;0.85;;;7.00;99.90;;;;;;5043959;28;20657;-71
2024/01/06 11:01:38;;;;;;;0.93;0.60;;;6.90;99.90;;;;;;5039871;28;20036;-70
2024/01/06 11:04:06;;;;;;;0.82;0.82;;;6.80;99.90;;;;;;5041267;28;20021;-70
2024/01/06 11:06:33;;;;;;;1.10;0.88;;;6.90;99.90;;;;;;5043492;28;20423;-71
2024/01/06 11:09:21;;;;;;;6.13;0.55;;;6.90;99.90;;;;;;5039236;28;20035;-71
2024/01/06 11:11:48;;;;;;;0.75;0.75;;;6.90;99.90;;;;;;5041712;28;20033;-71
2024/01/06 11:14:29;;;;;;;0.88;0.82;;;6.80;99.90;;;;;;5041449;28;20037;-72
2024/01/06 11:16:55;;;;;;;2.30;0.95;;;6.80;99.90;;;;;;5041464;28;20040;-71
2024/01/06 11:19:42;;;;;;;1.38;0.55;;;6.80;99.90;;;;;;5047191;28;20111;-71
2024/01/06 11:22:26;;;;;;;3.60;0.70;;;6.80;99.90;;;;;;5048343;28;20052;-70
2024/01/06 11:24:53;;;;;;;1.65;0.77;;;6.90;99.90;;;;;;5043126;28;20053;-71
2024/01/06 11:27:28;;;;;;;2.08;1.13;;;7.00;99.90;;;;;;5040081;28;20081;-71
2024/01/06 11:29:56;;;;;;;0.47;0.47;;;7.10;99.90;;;;;;5040824;28;20033;-70
2024/01/06 11:32:28;;;;;;;0.60;0.50;;;7.20;99.90;;;;;;5042403;28;20044;-71
2024/01/06 11:34:56;;;;;;;1.10;1.00;;;7.30;99.90;;;;;;5042202;28;20028;-71
2024/01/06 11:37:36;;;;;;;0.65;0.65;;;7.40;99.90;;;;;;5043779;28;20037;-71
2024/01/06 11:40:02;;;;;;;0.75;0.75;;;7.30;99.90;;;;;;5046420;28;20112;-70
2024/01/06 11:42:35;;;;;;;0.50;0.50;;;7.20;99.90;;;;;;5044281;28;20052;-70
2024/01/06 11:45:05;;;;;;;0.82;0.68;;;7.10;99.90;;;;;;5040768;28;20041;-71
2024/01/06 11:47:31;;;;;;;1.13;1.02;;;7.10;99.90;;;;;;5042966;28;20077;-70
2024/01/06 11:49:59;;;;;;;1.38;0.47;;;7.10;99.90;;;;;;5041589;28;20508;-70
2024/01/06 11:52:25;;;;;;;0.32;0.30;;;7.00;99.90;;;;;;5039011;28;20041;-71
2024/01/06 11:54:54;;;;;;;0.40;0.40;;;7.00;99.90;;;;;;5039582;28;20532;-70
2024/01/06 11:57:20;;;;;;;1.08;0.70;;;6.90;99.90;;;;;;5037569;28;20177;-71
2024/01/06 11:59:46;;;;;;;0.85;0.80;;;6.90;99.90;;;;;;5042581;28;20041;-71
2024/01/06 12:02:13;;;;;;;1.73;0.70;;;6.90;99.90;;;;;;5037898;28;20138;-71
2024/01/06 12:04:41;;;;;;;0.43;0.43;;;6.80;99.90;;;;;;5041040;28;20033;-71
2024/01/06 12:07:08;;;;;;;1.42;0.47;;;6.80;99.90;;;;;;5042936;28;20029;-72
2024/01/06 12:09:35;;;;;;;0.20;0.20;;;6.90;99.90;;;;;;5034482;28;20037;-70
2024/01/06 12:12:04;;;;;;;0.47;0.47;;;6.90;99.90;;;;;;5043778;28;20143;-71
2024/01/06 12:14:30;;;;;;;0.43;0.25;;;6.90;99.90;;;;;;5039341;28;20037;-71
2024/01/06 12:17:00;;;;;;;0.60;0.43;;;7.10;99.90;;;;;;5038829;28;20098;-72
2024/01/06 12:19:25;;;;;;;0.55;0.55;;;7.30;99.90;;;;;;5041835;28;20409;-71
2024/01/06 12:21:51;;;;;;;0.93;0.73;;;7.50;99.90;;;;;;5039069;28;20044;-70
2024/01/06 12:24:20;;;;;;;0.82;0.77;;;7.60;99.90;;;;;;5036805;28;20546;-71
2024/01/06 12:26:46;;;;;;;0.75;0.75;;;7.60;99.90;;;;;;5041086;28;20025;-70
2024/01/06 12:29:12;;;;;;;1.83;0.57;;;7.50;99.90;;;;;;5038065;28;20033;-70
2024/01/06 12:31:39;;;;;;;4.13;0.68;;;7.40;99.90;;;;;;5040596;28;20079;-70
2024/01/06 12:34:07;;;;;;;0.60;0.50;;;7.40;99.90;;;;;;5043028;28;20036;-71
2024/01/06 12:36:34;;;;;;;0.30;0.22;;;7.40;99.90;;;;;;5034059;28;20052;-71
2024/01/06 12:39:01;;;;;;;0.63;0.63;;;7.40;99.90;;;;;;5039453;28;20120;-71
2024/01/06 12:41:28;;;;;;;1.00;0.75;;;7.60;99.90;;;;;;5040049;28;20021;-70
2024/01/06 12:43:53;;;;;;;1.38;0.77;;;7.80;99.90;;;;;;5038853;28;20031;-71
2024/01/06 12:46:19;;;;;;;1.45;0.77;;;7.90;99.90;;;;;;5041782;28;20021;-70
2024/01/06 12:48:45;;;;;;;1.58;0.85;;;8.00;99.90;;;;;;5039120;28;20116;-70
2024/01/06 12:51:10;;;;;;;1.00;0.90;;;8.00;99.90;;;;;;5036601;28;20067;-72
2024/01/06 12:53:36;;;;;;;1.02;0.90;;;8.10;99.90;;;;;;5041004;28;20055;-71